sensor_id;sensor_type;location;lat;lon;timestamp;temperature;humidity
12452;DHT22;6291;48.924;12.204;2023-06-26T00:04:43;18.00;45.10
12452;DHT22;6291;48.924;12.204;2023-06-26T00:09:46;17.80;49.30
12452;DHT22;6291;48.924;12.204;2023-06-26T00:14:51;17.80;51.90
12452;DHT22;6291;48.924;12.204;2023-06-26T00:19:54;17.70;55.20
12452;DHT22;6291;48.924;12.204;2023-06-26T00:24:58;17.70;57.90
12452;DHT22;6291;48.924;12.204;2023-06-26T00:30:03;17.60;60.90
12452;DHT22;6291;48.924;12.204;2023-06-26T00:35:07;17.60;62.50
12452;DHT22;6291;48.924;12.204;2023-06-26T00:40:12;17.60;64.50
12452;DHT22;6291;48.924;12.204;2023-06-26T00:45:17;17.50;66.70
12452;DHT22;6291;48.924;12.204;2023-06-26T00:50:27;17.40;69.60
12452;DHT22;6291;48.924;12.204;2023-06-26T00:55:31;17.30;74.40
12452;DHT22;6291;48.924;12.204;2023-06-26T01:00:36;17.20;78.30
12452;DHT22;6291;48.924;12.204;2023-06-26T01:05:39;17.10;83.80
12452;DHT22;6291;48.924;12.204;2023-06-26T01:10:43;17.10;87.40
12452;DHT22;6291;48.924;12.204;2023-06-26T01:15:48;17.00;90.00
12452;DHT22;6291;48.924;12.204;2023-06-26T01:20:54;17.00;91.40
12452;DHT22;6291;48.924;12.204;2023-06-26T01:26:19;17.00;92.30
12452;DHT22;6291;48.924;12.204;2023-06-26T01:31:24;16.90;95.80
12452;DHT22;6291;48.924;12.204;2023-06-26T01:36:29;16.90;97.20
12452;DHT22;6291;48.924;12.204;2023-06-26T01:41:34;16.80;99.90
12452;DHT22;6291;48.924;12.204;2023-06-26T01:46:40;16.60;99.90
12452;DHT22;6291;48.924;12.204;2023-06-26T01:51:47;16.60;99.90
12452;DHT22;6291;48.924;12.204;2023-06-26T01:56:57;16.60;99.90
12452;DHT22;6291;48.924;12.204;2023-06-26T02:02:01;16.60;99.90
12452;DHT22;6291;48.924;12.204;2023-06-26T02:07:04;16.60;99.90
12452;DHT22;6291;48.924;12.204;2023-06-26T02:12:09;16.50;99.90
12452;DHT22;6291;48.924;12.204;2023-06-26T02:17:13;16.40;99.90
12452;DHT22;6291;48.924;12.204;2023-06-26T02:22:16;16.40;99.90
12452;DHT22;6291;48.924;12.204;2023-06-26T02:27:23;16.40;99.90
12452;DHT22;6291;48.924;12.204;2023-06-26T02:32:28;16.40;99.90
12452;DHT22;6291;48.924;12.204;2023-06-26T02:37:31;16.30;99.90
12452;DHT22;6291;48.924;12.204;2023-06-26T02:42:36;16.20;99.90
12452;DHT22;6291;48.924;12.204;2023-06-26T02:47:39;16.20;99.90
12452;DHT22;6291;48.924;12.204;2023-06-26T02:52:45;16.20;99.90
12452;DHT22;6291;48.924;12.204;2023-06-26T02:57:51;16.20;99.90
12452;DHT22;6291;48.924;12.204;2023-06-26T03:02:57;16.10;99.90
12452;DHT22;6291;48.924;12.204;2023-06-26T03:08:00;16.00;99.90
12452;DHT22;6291;48.924;12.204;2023-06-26T03:13:05;16.10;99.90
12452;DHT22;6291;48.924;12.204;2023-06-26T03:18:09;16.00;99.90
12452;DHT22;6291;48.924;12.204;2023-06-26T03:23:12;15.90;99.90
12452;DHT22;6291;48.924;12.204;2023-06-26T03:28:17;16.00;99.90
12452;DHT22;6291;48.924;12.204;2023-06-26T03:33:21;16.00;99.90
12452;DHT22;6291;48.924;12.204;2023-06-26T03:38:25;16.00;99.90
12452;DHT22;6291;48.924;12.204;2023-06-26T03:43:33;16.00;99.90
12452;DHT22;6291;48.924;12.204;2023-06-26T03:48:50;16.00;99.90
12452;DHT22;6291;48.924;12.204;2023-06-26T03:53:54;16.10;99.90
12452;DHT22;6291;48.924;12.204;2023-06-26T03:58:59;16.10;99.90
12452;DHT22;6291;48.924;12.204;2023-06-26T04:04:02;16.00;99.90
12452;DHT22;6291;48.924;12.204;2023-06-26T04:09:07;16.10;99.90
12452;DHT22;6291;48.924;12.204;2023-06-26T04:14:12;16.20;99.90
12452;DHT22;6291;48.924;12.204;2023-06-26T04:19:15;16.30;99.90
12452;DHT22;6291;48.924;12.204;2023-06-26T04:24:19;16.40;99.90
12452;DHT22;6291;48.924;12.204;2023-06-26T04:29:23;16.40;99.90
12452;DHT22;6291;48.924;12.204;2023-06-26T04:34:27;16.70;99.90
12452;DHT22;6291;48.924;12.204;2023-06-26T04:39:34;17.10;99.90
12452;DHT22;6291;48.924;12.204;2023-06-26T04:44:40;17.20;99.90
12452;DHT22;6291;48.924;12.204;2023-06-26T04:49:44;17.50;99.90
12452;DHT22;6291;48.924;12.204;2023-06-26T04:54:48;17.80;99.90
12452;DHT22;6291;48.924;12.204;2023-06-26T04:59:53;17.90;99.90
12452;DHT22;6291;48.924;12.204;2023-06-26T05:04:56;18.00;99.90
12452;DHT22;6291;48.924;12.204;2023-06-26T05:09:59;18.10;99.90
12452;DHT22;6291;48.924;12.204;2023-06-26T05:15:05;18.40;99.90
12452;DHT22;6291;48.924;12.204;2023-06-26T05:20:10;18.50;99.90
12452;DHT22;6291;48.924;12.204;2023-06-26T05:25:14;19.30;99.90
12452;DHT22;6291;48.924;12.204;2023-06-26T05:30:21;20.30;99.90
12452;DHT22;6291;48.924;12.204;2023-06-26T05:35:24;20.50;99.90
12452;DHT22;6291;48.924;12.204;2023-06-26T05:40:31;21.00;99.90
12452;DHT22;6291;48.924;12.204;2023-06-26T05:45:37;21.00;99.90
12452;DHT22;6291;48.924;12.204;2023-06-26T05:50:42;21.40;99.90
12452;DHT22;6291;48.924;12.204;2023-06-26T05:55:46;22.10;91.70
12452;DHT22;6291;48.924;12.204;2023-06-26T06:00:51;22.40;91.20
12452;DHT22;6291;48.924;12.204;2023-06-26T06:05:55;22.50;84.70
12452;DHT22;6291;48.924;12.204;2023-06-26T06:10:59;23.20;72.30
12452;DHT22;6291;48.924;12.204;2023-06-26T06:16:05;23.50;60.70
12452;DHT22;6291;48.924;12.204;2023-06-26T06:21:08;23.80;63.10
12452;DHT22;6291;48.924;12.204;2023-06-26T06:26:12;24.10;50.40
12452;DHT22;6291;48.924;12.204;2023-06-26T06:31:16;24.30;53.30
12452;DHT22;6291;48.924;12.204;2023-06-26T06:36:20;24.70;42.10
12452;DHT22;6291;48.924;12.204;2023-06-26T06:41:23;25.30;52.80
12452;DHT22;6291;48.924;12.204;2023-06-26T06:46:28;25.20;50.80
12452;DHT22;6291;48.924;12.204;2023-06-26T06:51:32;25.10;27.60
12452;DHT22;6291;48.924;12.204;2023-06-26T06:56:35;25.30;24.40
12452;DHT22;6291;48.924;12.204;2023-06-26T07:01:40;26.40;1.00
12452;DHT22;6291;48.924;12.204;2023-06-26T07:06:43;26.30;1.00
12452;DHT22;6291;48.924;12.204;2023-06-26T07:11:47;25.70;1.00
12452;DHT22;6291;48.924;12.204;2023-06-26T07:16:51;26.30;1.00
12452;DHT22;6291;48.924;12.204;2023-06-26T07:21:55;27.20;1.00
12452;DHT22;6291;48.924;12.204;2023-06-26T07:26:59;27.70;1.00
12452;DHT22;6291;48.924;12.204;2023-06-26T07:32:04;27.70;1.00
12452;DHT22;6291;48.924;12.204;2023-06-26T07:37:08;27.50;1.00
12452;DHT22;6291;48.924;12.204;2023-06-26T07:42:11;27.60;1.00
12452;DHT22;6291;48.924;12.204;2023-06-26T07:47:16;27.00;1.00
12452;DHT22;6291;48.924;12.204;2023-06-26T07:52:19;27.30;1.00
12452;DHT22;6291;48.924;12.204;2023-06-26T07:57:23;28.80;1.00
12452;DHT22;6291;48.924;12.204;2023-06-26T08:02:27;28.60;1.00
12452;DHT22;6291;48.924;12.204;2023-06-26T08:07:31;28.20;1.00
12452;DHT22;6291;48.924;12.204;2023-06-26T08:12:34;29.40;1.00
12452;DHT22;6291;48.924;12.204;2023-06-26T08:17:40;28.30;1.00
12452;DHT22;6291;48.924;12.204;2023-06-26T08:22:43;29.10;1.00
12452;DHT22;6291;48.924;12.204;2023-06-26T08:27:47;27.40;1.00
12452;DHT22;6291;48.924;12.204;2023-06-26T08:32:51;28.60;1.00
12452;DHT22;6291;48.924;12.204;2023-06-26T08:37:55;30.10;1.00
12452;DHT22;6291;48.924;12.204;2023-06-26T08:42:58;30.60;1.00
12452;DHT22;6291;48.924;12.204;2023-06-26T08:48:03;30.80;1.00
12452;DHT22;6291;48.924;12.204;2023-06-26T08:53:17;28.90;1.00
12452;DHT22;6291;48.924;12.204;2023-06-26T08:58:22;30.80;1.00
12452;DHT22;6291;48.924;12.204;2023-06-26T09:03:27;30.90;1.00
12452;DHT22;6291;48.924;12.204;2023-06-26T09:08:31;30.10;1.00
12452;DHT22;6291;48.924;12.204;2023-06-26T09:13:34;31.30;1.00
12452;DHT22;6291;48.924;12.204;2023-06-26T09:18:40;31.50;1.00
12452;DHT22;6291;48.924;12.204;2023-06-26T09:23:43;32.90;1.00
12452;DHT22;6291;48.924;12.204;2023-06-26T09:28:48;33.40;1.00
12452;DHT22;6291;48.924;12.204;2023-06-26T09:33:55;32.40;1.00
12452;DHT22;6291;48.924;12.204;2023-06-26T09:39:01;33.20;1.00
12452;DHT22;6291;48.924;12.204;2023-06-26T09:44:06;32.70;1.00
12452;DHT22;6291;48.924;12.204;2023-06-26T09:49:11;32.80;1.00
12452;DHT22;6291;48.924;12.204;2023-06-26T09:54:16;31.60;1.00
12452;DHT22;6291;48.924;12.204;2023-06-26T09:59:20;32.70;1.00
12452;DHT22;6291;48.924;12.204;2023-06-26T10:04:25;35.10;1.00
12452;DHT22;6291;48.924;12.204;2023-06-26T10:09:29;35.20;1.00
12452;DHT22;6291;48.924;12.204;2023-06-26T10:14:35;35.60;1.00
12452;DHT22;6291;48.924;12.204;2023-06-26T10:19:43;29.80;1.00
12452;DHT22;6291;48.924;12.204;2023-06-26T10:24:47;30.60;1.00
12452;DHT22;6291;48.924;12.204;2023-06-26T10:29:54;31.20;1.00
12452;DHT22;6291;48.924;12.204;2023-06-26T10:35:00;31.80;1.00
12452;DHT22;6291;48.924;12.204;2023-06-26T10:40:06;31.50;1.00
12452;DHT22;6291;48.924;12.204;2023-06-26T10:45:13;31.90;1.00
12452;DHT22;6291;48.924;12.204;2023-06-26T10:50:19;31.30;1.00
12452;DHT22;6291;48.924;12.204;2023-06-26T10:55:27;31.90;1.00
12452;DHT22;6291;48.924;12.204;2023-06-26T11:00:31;31.40;1.00
12452;DHT22;6291;48.924;12.204;2023-06-26T11:05:36;34.50;1.00
12452;DHT22;6291;48.924;12.204;2023-06-26T11:10:53;31.60;1.00
12452;DHT22;6291;48.924;12.204;2023-06-26T11:15:57;34.30;1.00
12452;DHT22;6291;48.924;12.204;2023-06-26T11:21:09;33.80;1.00
12452;DHT22;6291;48.924;12.204;2023-06-26T11:26:14;31.80;1.00
12452;DHT22;6291;48.924;12.204;2023-06-26T11:31:25;31.60;1.00
12452;DHT22;6291;48.924;12.204;2023-06-26T11:36:30;34.20;1.00
12452;DHT22;6291;48.924;12.204;2023-06-26T11:41:35;35.00;1.00
12452;DHT22;6291;48.924;12.204;2023-06-26T11:46:39;34.00;1.00
12452;DHT22;6291;48.924;12.204;2023-06-26T11:51:43;32.70;1.00
12452;DHT22;6291;48.924;12.204;2023-06-26T11:56:52;33.10;1.00
12452;DHT22;6291;48.924;12.204;2023-06-26T12:01:56;33.30;1.00
12452;DHT22;6291;48.924;12.204;2023-06-26T12:07:01;34.40;1.00
12452;DHT22;6291;48.924;12.204;2023-06-26T12:12:08;33.30;1.00
12452;DHT22;6291;48.924;12.204;2023-06-26T12:17:13;33.10;1.00
12452;DHT22;6291;48.924;12.204;2023-06-26T12:22:18;34.70;1.00
12452;DHT22;6291;48.924;12.204;2023-06-26T12:27:22;34.80;1.00
12452;DHT22;6291;48.924;12.204;2023-06-26T12:32:25;32.60;1.00
12452;DHT22;6291;48.924;12.204;2023-06-26T12:37:36;32.30;1.00
12452;DHT22;6291;48.924;12.204;2023-06-26T12:42:42;32.30;1.00
12452;DHT22;6291;48.924;12.204;2023-06-26T12:47:45;31.70;1.00
12452;DHT22;6291;48.924;12.204;2023-06-26T12:52:50;32.60;1.00
12452;DHT22;6291;48.924;12.204;2023-06-26T12:57:54;33.60;1.00
12452;DHT22;6291;48.924;12.204;2023-06-26T13:02:57;32.40;1.00
12452;DHT22;6291;48.924;12.204;2023-06-26T13:08:03;33.50;1.00
12452;DHT22;6291;48.924;12.204;2023-06-26T13:13:06;35.00;1.00
12452;DHT22;6291;48.924;12.204;2023-06-26T13:18:10;35.10;1.00
12452;DHT22;6291;48.924;12.204;2023-06-26T13:23:15;32.90;1.00
12452;DHT22;6291;48.924;12.204;2023-06-26T13:28:18;33.50;1.00
12452;DHT22;6291;48.924;12.204;2023-06-26T13:33:22;33.10;1.00
12452;DHT22;6291;48.924;12.204;2023-06-26T13:38:28;31.80;1.00
12452;DHT22;6291;48.924;12.204;2023-06-26T13:43:31;32.10;1.00
12452;DHT22;6291;48.924;12.204;2023-06-26T13:48:35;35.30;1.00
12452;DHT22;6291;48.924;12.204;2023-06-26T13:53:40;33.80;1.00
12452;DHT22;6291;48.924;12.204;2023-06-26T13:58:44;33.40;1.00
12452;DHT22;6291;48.924;12.204;2023-06-26T14:03:47;33.40;1.00
12452;DHT22;6291;48.924;12.204;2023-06-26T14:08:52;32.80;1.00
12452;DHT22;6291;48.924;12.204;2023-06-26T14:13:56;33.70;1.00
12452;DHT22;6291;48.924;12.204;2023-06-26T14:18:59;35.70;1.00
12452;DHT22;6291;48.924;12.204;2023-06-26T14:24:05;33.30;1.00
12452;DHT22;6291;48.924;12.204;2023-06-26T14:29:08;33.50;1.00
12452;DHT22;6291;48.924;12.204;2023-06-26T14:34:12;34.60;1.00
12452;DHT22;6291;48.924;12.204;2023-06-26T14:39:16;33.60;1.00
12452;DHT22;6291;48.924;12.204;2023-06-26T14:44:20;33.30;1.00
12452;DHT22;6291;48.924;12.204;2023-06-26T14:49:24;35.00;1.00
12452;DHT22;6291;48.924;12.204;2023-06-26T14:54:29;35.80;1.00
12452;DHT22;6291;48.924;12.204;2023-06-26T14:59:32;33.00;1.00
12452;DHT22;6291;48.924;12.204;2023-06-26T15:04:35;32.70;1.00
12452;DHT22;6291;48.924;12.204;2023-06-26T15:09:40;34.30;1.00
12452;DHT22;6291;48.924;12.204;2023-06-26T15:14:44;35.20;1.00
12452;DHT22;6291;48.924;12.204;2023-06-26T15:19:47;35.90;1.00
12452;DHT22;6291;48.924;12.204;2023-06-26T15:24:52;35.40;1.00
12452;DHT22;6291;48.924;12.204;2023-06-26T15:29:56;35.00;1.00
12452;DHT22;6291;48.924;12.204;2023-06-26T15:34:59;33.10;1.00
12452;DHT22;6291;48.924;12.204;2023-06-26T15:40:05;32.40;1.00
12452;DHT22;6291;48.924;12.204;2023-06-26T15:45:10;32.50;1.00
12452;DHT22;6291;48.924;12.204;2023-06-26T15:50:14;32.30;1.00
12452;DHT22;6291;48.924;12.204;2023-06-26T15:55:19;32.10;1.00
12452;DHT22;6291;48.924;12.204;2023-06-26T16:00:24;31.60;1.00
12452;DHT22;6291;48.924;12.204;2023-06-26T16:05:29;31.20;1.00
12452;DHT22;6291;48.924;12.204;2023-06-26T16:10:35;31.10;1.00
12452;DHT22;6291;48.924;12.204;2023-06-26T16:15:39;31.00;1.00
12452;DHT22;6291;48.924;12.204;2023-06-26T16:20:43;31.30;1.00
12452;DHT22;6291;48.924;12.204;2023-06-26T16:25:48;31.70;1.00
12452;DHT22;6291;48.924;12.204;2023-06-26T16:30:52;31.50;1.00
12452;DHT22;6291;48.924;12.204;2023-06-26T16:35:56;31.50;1.00
12452;DHT22;6291;48.924;12.204;2023-06-26T16:41:01;31.30;1.00
12452;DHT22;6291;48.924;12.204;2023-06-26T16:46:05;30.90;1.00
12452;DHT22;6291;48.924;12.204;2023-06-26T16:51:09;30.50;1.00
12452;DHT22;6291;48.924;12.204;2023-06-26T16:56:14;30.10;1.00
12452;DHT22;6291;48.924;12.204;2023-06-26T17:01:22;29.70;1.00
12452;DHT22;6291;48.924;12.204;2023-06-26T17:06:25;29.70;1.00
12452;DHT22;6291;48.924;12.204;2023-06-26T17:11:31;29.60;1.00
12452;DHT22;6291;48.924;12.204;2023-06-26T17:16:34;29.70;1.00
12452;DHT22;6291;48.924;12.204;2023-06-26T17:21:38;29.80;1.00
12452;DHT22;6291;48.924;12.204;2023-06-26T17:26:44;29.60;1.00
12452;DHT22;6291;48.924;12.204;2023-06-26T17:31:47;29.50;1.00
12452;DHT22;6291;48.924;12.204;2023-06-26T17:36:51;29.20;1.00
12452;DHT22;6291;48.924;12.204;2023-06-26T17:41:55;29.00;1.00
12452;DHT22;6291;48.924;12.204;2023-06-26T17:46:59;28.90;1.00
12452;DHT22;6291;48.924;12.204;2023-06-26T17:52:03;28.80;1.00
12452;DHT22;6291;48.924;12.204;2023-06-26T17:57:09;28.70;1.00
12452;DHT22;6291;48.924;12.204;2023-06-26T18:02:12;28.80;1.00
12452;DHT22;6291;48.924;12.204;2023-06-26T18:07:15;28.60;1.00
12452;DHT22;6291;48.924;12.204;2023-06-26T18:12:20;28.50;1.00
12452;DHT22;6291;48.924;12.204;2023-06-26T18:17:24;28.40;1.00
12452;DHT22;6291;48.924;12.204;2023-06-26T18:22:27;28.10;1.00
12452;DHT22;6291;48.924;12.204;2023-06-26T18:27:33;27.90;1.00
12452;DHT22;6291;48.924;12.204;2023-06-26T18:32:37;27.70;1.00
12452;DHT22;6291;48.924;12.204;2023-06-26T18:37:41;27.50;1.00
12452;DHT22;6291;48.924;12.204;2023-06-26T18:42:46;27.40;1.00
12452;DHT22;6291;48.924;12.204;2023-06-26T18:47:49;27.30;1.00
12452;DHT22;6291;48.924;12.204;2023-06-26T18:52:54;27.20;1.00
12452;DHT22;6291;48.924;12.204;2023-06-26T18:57:59;27.10;1.00
12452;DHT22;6291;48.924;12.204;2023-06-26T19:03:03;26.90;1.00
12452;DHT22;6291;48.924;12.204;2023-06-26T19:08:07;26.60;1.00
12452;DHT22;6291;48.924;12.204;2023-06-26T19:13:12;26.50;1.00
12452;DHT22;6291;48.924;12.204;2023-06-26T19:18:16;26.30;1.00
12452;DHT22;6291;48.924;12.204;2023-06-26T19:23:19;26.20;1.00
12452;DHT22;6291;48.924;12.204;2023-06-26T19:28:24;26.00;1.00
12452;DHT22;6291;48.924;12.204;2023-06-26T19:33:27;25.70;1.00
12452;DHT22;6291;48.924;12.204;2023-06-26T19:38:33;25.60;1.00
12452;DHT22;6291;48.924;12.204;2023-06-26T19:43:37;25.40;1.00
12452;DHT22;6291;48.924;12.204;2023-06-26T19:48:41;25.30;1.00
12452;DHT22;6291;48.924;12.204;2023-06-26T19:53:45;25.20;1.00
12452;DHT22;6291;48.924;12.204;2023-06-26T19:58:54;25.10;1.00
12452;DHT22;6291;48.924;12.204;2023-06-26T20:03:58;25.00;1.00
12452;DHT22;6291;48.924;12.204;2023-06-26T20:09:06;24.90;1.00
12452;DHT22;6291;48.924;12.204;2023-06-26T20:14:12;24.70;1.00
12452;DHT22;6291;48.924;12.204;2023-06-26T20:19:15;24.60;1.00
12452;DHT22;6291;48.924;12.204;2023-06-26T20:24:18;24.40;1.00
12452;DHT22;6291;48.924;12.204;2023-06-26T20:29:24;24.30;1.00
12452;DHT22;6291;48.924;12.204;2023-06-26T20:34:27;24.30;1.00
12452;DHT22;6291;48.924;12.204;2023-06-26T20:39:31;24.10;1.00
12452;DHT22;6291;48.924;12.204;2023-06-26T20:44:37;24.00;1.00
12452;DHT22;6291;48.924;12.204;2023-06-26T20:49:40;23.90;1.00
12452;DHT22;6291;48.924;12.204;2023-06-26T20:54:45;23.70;1.00
12452;DHT22;6291;48.924;12.204;2023-06-26T20:59:50;23.60;1.00
12452;DHT22;6291;48.924;12.204;2023-06-26T21:04:53;23.50;1.00
12452;DHT22;6291;48.924;12.204;2023-06-26T21:09:57;23.30;1.00
12452;DHT22;6291;48.924;12.204;2023-06-26T21:15:03;23.30;1.00
12452;DHT22;6291;48.924;12.204;2023-06-26T21:20:07;23.20;1.00
12452;DHT22;6291;48.924;12.204;2023-06-26T21:25:11;23.10;1.00
12452;DHT22;6291;48.924;12.204;2023-06-26T21:30:16;23.00;1.00
12452;DHT22;6291;48.924;12.204;2023-06-26T21:35:20;22.80;1.00
12452;DHT22;6291;48.924;12.204;2023-06-26T21:40:43;22.70;1.00
12452;DHT22;6291;48.924;12.204;2023-06-26T21:45:48;22.70;1.00
12452;DHT22;6291;48.924;12.204;2023-06-26T21:50:52;22.70;1.00
12452;DHT22;6291;48.924;12.204;2023-06-26T21:55:55;22.50;1.00
12452;DHT22;6291;48.924;12.204;2023-06-26T22:01:00;22.40;1.00
12452;DHT22;6291;48.924;12.204;2023-06-26T22:06:04;22.30;1.00
12452;DHT22;6291;48.924;12.204;2023-06-26T22:11:08;22.20;1.00
12452;DHT22;6291;48.924;12.204;2023-06-26T22:16:12;22.10;1.00
12452;DHT22;6291;48.924;12.204;2023-06-26T22:21:16;22.00;1.00
12452;DHT22;6291;48.924;12.204;2023-06-26T22:26:21;21.90;1.00
12452;DHT22;6291;48.924;12.204;2023-06-26T22:31:26;21.80;1.00
12452;DHT22;6291;48.924;12.204;2023-06-26T22:36:29;21.80;1.00
12452;DHT22;6291;48.924;12.204;2023-06-26T22:41:33;21.70;1.00
12452;DHT22;6291;48.924;12.204;2023-06-26T22:46:37;21.50;1.00
12452;DHT22;6291;48.924;12.204;2023-06-26T22:51:41;21.30;1.00
12452;DHT22;6291;48.924;12.204;2023-06-26T22:56:45;21.30;1.00
12452;DHT22;6291;48.924;12.204;2023-06-26T23:15:35;21.00;1.00
12452;DHT22;6291;48.924;12.204;2023-06-26T23:20:41;20.80;1.00
12452;DHT22;6291;48.924;12.204;2023-06-26T23:25:47;20.70;1.00
12452;DHT22;6291;48.924;12.204;2023-06-26T23:30:53;20.70;1.00
12452;DHT22;6291;48.924;12.204;2023-06-26T23:35:56;20.70;1.00
12452;DHT22;6291;48.924;12.204;2023-06-26T23:41:00;20.60;1.00
12452;DHT22;6291;48.924;12.204;2023-06-26T23:46:06;20.60;1.00
12452;DHT22;6291;48.924;12.204;2023-06-26T23:51:12;20.40;1.00
12452;DHT22;6291;48.924;12.204;2023-06-26T23:56:16;20.30;1.00
